createdAt,value
2022-09-23T00:01:22.640Z,3.80
2022-09-23T00:07:46.949Z,4.30
2022-09-23T00:14:11.272Z,3.90
2022-09-23T00:20:35.701Z,6.60
2022-09-23T00:27:00.082Z,3.40
2022-09-23T00:33:24.299Z,3.80
2022-09-23T00:39:48.636Z,3.90
2022-09-23T00:46:12.950Z,3.20
2022-09-23T00:52:40.295Z,3.30
2022-09-23T00:59:04.712Z,4.00
2022-09-23T01:05:28.935Z,3.40
2022-09-23T01:11:55.719Z,3.30
2022-09-23T01:18:21.289Z,4.70
2022-09-23T01:25:06.986Z,3.80
2022-09-23T01:31:46.528Z,3.60
2022-09-23T01:38:19.766Z,3.10
2022-09-23T01:44:46.626Z,3.60
2022-09-23T01:51:16.225Z,2.80
2022-09-23T01:57:46.119Z,3.90
2022-09-23T02:04:28.435Z,4.50
2022-09-23T02:11:01.452Z,3.80
2022-09-23T02:17:28.891Z,4.40
2022-09-23T02:23:55.899Z,3.20
2022-09-23T02:30:27.008Z,4.50
2022-09-23T02:36:54.077Z,4.30
2022-09-23T02:43:18.356Z,2.90
2022-09-23T02:49:45.241Z,4.10
2022-09-23T02:56:09.562Z,4.90
2022-09-23T03:02:38.214Z,2.40
2022-09-23T03:09:11.143Z,2.70
2022-09-23T03:15:50.344Z,2.70
2022-09-23T03:22:17.162Z,3.80
2022-09-23T03:28:41.449Z,3.80
2022-09-23T03:35:05.945Z,2.60
2022-09-23T03:41:33.012Z,2.10
2022-09-23T03:48:00.063Z,2.90
2022-09-23T03:54:24.367Z,3.80
2022-09-23T04:00:48.840Z,2.50
2022-09-23T04:07:13.291Z,2.60
2022-09-23T04:13:37.612Z,2.40
2022-09-23T04:20:01.919Z,2.80
2022-09-23T04:26:28.748Z,2.90
2022-09-23T04:32:52.988Z,2.90
2022-09-23T04:39:17.322Z,3.40
2022-09-23T04:45:33.736Z,2.10
2022-09-23T04:52:13.216Z,4.10
2022-09-23T04:58:37.499Z,3.30
2022-09-23T05:05:01.823Z,2.20
2022-09-23T05:11:25.772Z,2.30
2022-09-23T05:17:50.057Z,3.60
2022-09-23T05:24:14.312Z,3.30
2022-09-23T05:30:38.638Z,2.50
2022-09-23T05:37:03.108Z,3.60
2022-09-23T05:43:27.813Z,2.40
2022-09-23T05:50:00.488Z,5.40
2022-09-23T05:56:25.120Z,2.40
2022-09-23T06:02:49.348Z,5.10
2022-09-23T06:09:13.625Z,4.00
2022-09-23T06:15:37.853Z,5.20
2022-09-23T06:22:02.275Z,3.60
2022-09-23T06:28:35.347Z,4.70
2022-09-23T06:34:59.580Z,5.40
2022-09-23T06:41:23.777Z,4.20
2022-09-23T06:47:47.971Z,7.20
2022-09-23T06:54:12.272Z,4.00
2022-09-23T07:00:36.481Z,6.70
2022-09-23T07:07:00.722Z,4.20
2022-09-23T07:13:25.050Z,4.00
2022-09-23T07:19:49.361Z,5.90
2022-09-23T07:26:13.735Z,5.90
2022-09-23T07:32:47.245Z,6.70
2022-09-23T07:39:12.768Z,3.50
2022-09-23T07:45:37.113Z,3.90
2022-09-23T07:52:04.583Z,4.40
2022-09-23T07:58:28.847Z,3.20
2022-09-23T08:04:53.152Z,2.40
2022-09-23T08:11:17.477Z,5.10
2022-09-23T08:17:41.753Z,3.40
2022-09-23T08:24:06.114Z,5.10
2022-09-23T08:30:30.831Z,2.50
2022-09-23T08:36:55.097Z,2.30
2022-09-23T08:43:19.304Z,4.10
2022-09-23T08:49:46.429Z,2.10
2022-09-23T09:02:33.554Z,1.30
2022-09-23T09:08:57.888Z,2.10
2022-09-23T09:15:31.310Z,3.60
2022-09-23T09:22:07.820Z,4.10
2022-09-23T09:28:32.554Z,2.80
2022-09-23T09:35:05.803Z,1.90
2022-09-23T09:41:29.991Z,0.60
2022-09-23T09:47:55.962Z,1.00
2022-09-23T09:54:20.202Z,2.00
2022-09-23T10:01:02.488Z,1.40
2022-09-23T10:07:26.819Z,0.90
2022-09-23T10:13:56.951Z,2.20
2022-09-23T10:20:27.338Z,0.80
2022-09-23T10:27:06.479Z,1.50
2022-09-23T10:33:36.740Z,1.70
2022-09-23T10:39:59.306Z,2.00
2022-09-23T10:46:27.857Z,2.70
2022-09-23T10:53:07.091Z,2.50
2022-09-23T10:59:40.311Z,2.60
2022-09-23T11:06:06.153Z,3.10
2022-09-23T11:12:31.876Z,5.10
2022-09-23T11:19:20.503Z,2.60
2022-09-23T11:25:46.130Z,3.50
2022-09-23T11:32:13.313Z,3.90
2022-09-23T11:38:52.898Z,2.90
2022-09-23T11:45:25.010Z,3.60
2022-09-23T11:51:51.955Z,18.10
2022-09-23T11:58:24.337Z,5.30
2022-09-23T12:04:57.323Z,7.00
2022-09-23T12:11:21.347Z,4.60
2022-09-23T12:17:51.379Z,3.70
2022-09-23T12:24:27.899Z,2.50
2022-09-23T12:31:01.572Z,2.50
2022-09-23T12:37:25.948Z,2.30
2022-09-23T12:43:58.995Z,3.80
2022-09-23T12:50:26.133Z,0.80
2022-09-23T12:56:59.667Z,1.60
2022-09-23T13:03:28.397Z,1.40
2022-09-23T13:09:58.585Z,2.50
2022-09-23T13:16:28.915Z,2.60
2022-09-23T13:22:59.484Z,2.70
2022-09-23T13:29:35.969Z,0.90
2022-09-23T13:36:12.205Z,2.50
2022-09-23T13:42:36.589Z,8.10
2022-09-23T13:49:07.047Z,4.50
2022-09-23T13:55:32.241Z,2.20
2022-09-23T14:02:02.768Z,0.90
2022-09-23T14:08:27.039Z,4.10
2022-09-23T14:14:54.013Z,3.00
2022-09-23T14:21:27.151Z,2.20
2022-09-23T14:27:58.499Z,3.90
2022-09-23T14:34:24.650Z,4.70
2022-09-23T14:40:49.418Z,3.40
2022-09-23T14:47:13.878Z,1.50
2022-09-23T14:53:44.033Z,2.50
2022-09-23T15:00:14.099Z,3.50
2022-09-23T15:06:44.228Z,2.00
2022-09-23T15:13:14.491Z,2.40
2022-09-23T15:19:47.286Z,1.30
2022-09-23T15:26:20.623Z,3.70
2022-09-23T15:32:44.901Z,1.90
2022-09-23T15:39:09.223Z,2.60
2022-09-23T15:45:33.603Z,3.40
2022-09-23T15:51:57.938Z,4.10
2022-09-23T15:58:22.136Z,2.70
2022-09-23T16:04:46.455Z,7.10
2022-09-23T16:11:10.801Z,6.40
2022-09-23T16:17:35.016Z,6.10
2022-09-23T16:23:56.065Z,3.60
2022-09-23T16:30:21.008Z,8.20
2022-09-23T16:36:48.345Z,10.80
2022-09-23T16:43:12.730Z,6.90
2022-09-23T16:49:37.039Z,4.60
2022-09-23T16:56:01.383Z,4.70
2022-09-23T17:02:24.300Z,6.90
2022-09-23T17:08:48.741Z,4.60
2022-09-23T17:15:12.768Z,4.60
2022-09-23T17:21:37.061Z,6.80
2022-09-23T17:28:01.272Z,7.80
2022-09-23T17:34:25.914Z,9.10
2022-09-23T17:40:50.380Z,9.20
2022-09-23T17:47:14.849Z,9.20
2022-09-23T17:53:39.122Z,9.30
2022-09-23T18:00:03.807Z,9.60
2022-09-23T18:06:28.081Z,11.50
2022-09-23T18:12:52.310Z,10.10
2022-09-23T18:19:16.583Z,12.90
2022-09-23T18:25:40.930Z,11.20
2022-09-23T18:32:05.275Z,11.30
2022-09-23T18:38:29.596Z,11.30
2022-09-23T18:44:54.065Z,11.10
2022-09-23T18:51:18.308Z,11.70
2022-09-23T18:57:42.658Z,11.40
2022-09-23T19:04:06.972Z,12.10
2022-09-23T19:10:31.336Z,11.10
2022-09-23T19:16:55.562Z,12.10
2022-09-23T19:23:20.216Z,12.70
2022-09-23T19:29:50.357Z,12.70
2022-09-23T19:36:14.669Z,13.30
2022-09-23T19:42:39.021Z,14.20
2022-09-23T19:49:03.280Z,14.50
2022-09-23T19:55:27.710Z,13.50
2022-09-23T20:01:52.082Z,13.60
2022-09-23T20:08:16.422Z,13.50
2022-09-23T20:14:40.640Z,11.20
2022-09-23T20:21:05.479Z,12.40
2022-09-23T20:27:29.762Z,12.60
2022-09-23T20:33:46.767Z,12.40
2022-09-23T20:40:11.070Z,12.10
2022-09-23T20:46:38.230Z,13.50
2022-09-23T20:53:02.601Z,13.00
2022-09-23T20:59:26.889Z,15.00
2022-09-23T21:05:51.864Z,12.70
2022-09-23T21:12:16.150Z,12.30
2022-09-23T21:18:40.319Z,14.60
2022-09-23T21:25:26.982Z,12.40
2022-09-23T21:31:48.987Z,14.40
2022-09-23T21:38:13.352Z,13.60
2022-09-23T21:44:38.006Z,13.80
2022-09-23T21:51:02.234Z,13.20
2022-09-23T21:57:26.704Z,13.70
2022-09-23T22:03:52.045Z,13.30
2022-09-23T22:10:16.370Z,12.30
2022-09-23T22:16:40.725Z,15.50
2022-09-23T22:23:08.266Z,12.60
2022-09-23T22:29:31.203Z,13.70
2022-09-23T22:35:55.534Z,12.70
2022-09-23T22:42:18.775Z,14.40
2022-09-23T22:48:43.128Z,14.90
2022-09-23T22:55:09.986Z,13.90
2022-09-23T23:01:36.997Z,13.10
2022-09-23T23:08:01.316Z,13.50
2022-09-23T23:14:25.594Z,13.20
2022-09-23T23:20:42.451Z,12.10
2022-09-23T23:27:09.497Z,12.80
2022-09-23T23:33:33.722Z,16.70
2022-09-23T23:39:58.046Z,11.90
2022-09-23T23:46:22.358Z,12.60
2022-09-23T23:52:46.626Z,13.10
2022-09-23T23:59:10.886Z,12.80
